Time;durP1;ratioP1;P1;durP2;ratioP2;P2;SDS_P1;SDS_P2;PMS_P1;PMS_P2;Temp;Humidity;BMP_temperature;BMP_pressure;BME280_temperature;BME280_humidity;BME280_pressure;Samples;Min_cycle;Max_cycle;Signal;HPM_P1;HPM_P2
2022/12/07 00:04:24;;;;;;;0.65;0.60;;;;;;;2.55;99.87;101228.03;10282636;28;20583;-85
2022/12/07 00:09:26;;;;;;;1.30;1.20;;;;;;;2.51;100.00;101223.47;10285868;28;20093;-85
2022/12/07 00:14:27;;;;;;;1.90;1.05;;;;;;;2.43;99.94;101224.72;10280978;28;20039;-85
2022/12/07 00:19:29;;;;;;;1.45;1.13;;;;;;;2.32;100.00;101226.69;10281732;28;20081;-85
2022/12/07 00:24:30;;;;;;;2.92;1.15;;;;;;;2.21;99.81;101230.38;10281552;28;20062;-85
2022/12/07 00:29:31;;;;;;;2.83;1.27;;;;;;;2.28;99.80;101229.91;10281278;28;20043;-85
2022/12/07 00:34:33;;;;;;;1.83;0.77;;;;;;;2.20;99.78;101231.16;10281542;28;20098;-85
2022/12/07 00:39:34;;;;;;;1.10;0.75;;;;;;;2.16;99.80;101221.44;10281699;28;20039;-85
2022/12/07 00:44:36;;;;;;;1.00;0.82;;;;;;;2.07;99.77;101222.72;10289294;28;20035;-85
2022/12/07 00:49:38;;;;;;;0.43;0.43;;;;;;;2.00;99.75;101222.25;10279904;28;20043;-85
2022/12/07 00:54:39;;;;;;;0.40;0.40;;;;;;;1.93;99.90;101221.00;10280574;28;20611;-85
2022/12/07 00:59:41;;;;;;;0.28;0.28;;;;;;;1.82;99.37;101228.13;10281837;28;20094;-85
2022/12/07 01:04:42;;;;;;;0.20;0.20;;;;;;;1.75;99.74;101213.06;10281956;28;20070;-85
2022/12/07 01:09:44;;;;;;;0.63;0.22;;;;;;;1.80;99.62;101219.38;10281790;28;20046;-85
2022/12/07 01:14:45;;;;;;;0.55;0.55;;;;;;;1.78;99.95;101205.50;10279360;28;20051;-85
2022/12/07 01:19:47;;;;;;;0.35;0.35;;;;;;;1.68;99.77;101204.06;10281117;28;20035;-87
2022/12/07 01:24:49;;;;;;;0.20;0.20;;;;;;;1.65;99.55;101208.13;10269994;28;20042;-83
2022/12/07 01:29:50;;;;;;;1.13;1.02;;;;;;;1.64;99.58;101206.38;10288610;28;20043;-83
2022/12/07 01:34:52;;;;;;;1.50;0.82;;;;;;;1.59;99.44;101203.50;10288760;28;20031;-85
2022/12/07 01:39:54;;;;;;;0.90;0.30;;;;;;;1.57;99.73;101205.97;10287937;28;20536;-85
2022/12/07 01:45:14;;;;;;;0.57;0.22;;;;;;;1.55;99.52;101210.16;10287977;28;20043;-86
2022/12/07 01:50:16;;;;;;;0.30;0.28;;;;;;;1.67;99.68;101219.47;10289438;28;20075;-85
2022/12/07 01:55:18;;;;;;;0.55;0.55;;;;;;;1.71;99.73;101236.91;10262177;28;20050;-86
2022/12/07 02:00:19;;;;;;;0.63;0.40;;;;;;;1.86;99.89;101214.59;10287016;28;20066;-87
2022/12/07 02:05:22;;;;;;;1.52;1.40;;;;;;;1.92;99.60;101198.53;10295106;28;20042;-86
2022/12/07 02:10:27;;;;;;;1.90;1.05;;;;;;;1.84;99.82;101194.63;10286600;28;20054;-86
2022/12/07 02:15:41;;;;;;;0.65;0.65;;;;;;;1.74;99.58;101177.69;10286925;28;20081;-85
2022/12/07 02:20:57;;;;;;;0.20;0.20;;;;;;;1.77;99.87;101178.78;10289070;28;20102;-86
2022/12/07 02:26:32;;;;;;;1.90;1.25;;;;;;;1.69;99.57;101186.88;10292322;28;20054;-86
2022/12/07 02:31:35;;;;;;;0.20;0.20;;;;;;;1.72;99.70;101172.44;10294640;28;20087;-87
2022/12/07 02:36:44;;;;;;;0.10;0.10;;;;;;;1.69;99.58;101168.81;10284655;28;20505;-86
2022/12/07 02:41:57;;;;;;;0.35;0.35;;;;;;;1.68;99.77;101164.44;10277334;28;20058;-87
2022/12/07 02:47:07;;;;;;;1.55;0.55;;;;;;;1.62;99.86;101166.66;10285712;28;20070;-87
2022/12/07 02:52:08;;;;;;;1.30;0.85;;;;;;;1.54;99.58;101167.09;10268454;28;20509;-87
2022/12/07 02:57:41;;;;;;;0.88;0.65;;;;;;;1.49;99.80;101159.88;10259048;28;20125;-87
2022/12/07 03:03:00;;;;;;;0.35;0.28;;;;;;;1.36;99.75;101158.25;10284851;28;20034;-88
2022/12/07 03:08:07;;;;;;;0.40;0.40;;;;;;;1.27;99.75;101162.88;10267990;28;20043;-88
2022/12/07 03:13:22;;;;;;;0.28;0.28;;;;;;;1.22;99.73;101163.47;10277420;28;20043;-86
2022/12/07 03:18:28;;;;;;;0.10;0.10;;;;;;;1.28;99.49;101159.50;10284432;28;20066;-88
2022/12/07 03:23:33;;;;;;;0.75;0.65;;;;;;;1.37;99.61;101150.59;10259304;28;20102;-87
2022/12/07 03:28:39;;;;;;;0.20;0.20;;;;;;;1.41;99.66;101141.34;10283502;28;20050;-87
2022/12/07 03:33:59;;;;;;;0.30;0.30;;;;;;;1.40;99.55;101147.31;10282788;28;20039;-86
2022/12/07 03:39:13;;;;;;;0.73;0.30;;;;;;;1.40;99.65;101148.19;10282823;28;20125;-87
2022/12/07 03:44:15;;;;;;;0.10;0.10;;;;;;;1.45;99.59;101153.63;10273306;28;20039;-87
2022/12/07 03:49:30;;;;;;;0.20;0.20;;;;;;;1.43;99.30;101150.09;10265640;28;20051;-87
2022/12/07 03:54:47;;;;;;;0.10;0.10;;;;;;;1.47;99.62;101148.56;10277402;28;20085;-87
2022/12/07 03:59:49;;;;;;;0.10;0.10;;;;;;;1.48;99.41;101150.34;10284887;28;20043;-86
2022/12/07 04:04:52;;;;;;;0.40;0.35;;;;;;;1.56;99.56;101150.03;10281738;28;20543;-86
2022/12/07 04:09:54;;;;;;;0.10;0.10;;;;;;;1.55;99.31;101150.81;10282214;28;20577;-86
2022/12/07 04:14:56;;;;;;;0.10;0.10;;;;;;;1.46;99.53;101168.34;10290608;28;20058;-86
2022/12/07 04:19:57;;;;;;;0.28;0.28;;;;;;;1.44;98.96;101159.59;10282089;28;20042;-86
2022/12/07 04:24:59;;;;;;;0.10;0.10;;;;;;;1.40;99.50;101157.66;10282841;28;20093;-86
2022/12/07 04:30:00;;;;;;;0.10;0.10;;;;;;;1.33;99.21;101156.38;10294376;28;20097;-85
2022/12/07 04:35:03;;;;;;;0.20;0.20;;;;;;;1.23;99.30;101157.53;10285608;28;20043;-85
2022/12/07 04:40:08;;;;;;;0.10;0.10;;;;;;;1.28;98.94;101164.66;10287364;28;20051;-86
2022/12/07 04:45:10;;;;;;;0.43;0.10;;;;;;;1.34;99.22;101159.84;10285191;28;20046;-86
2022/12/07 04:50:11;;;;;;;0.25;0.25;;;;;;;1.41;99.20;101152.56;10284171;28;20051;-87
2022/12/07 04:55:13;;;;;;;0.10;0.10;;;;;;;1.43;98.78;101152.66;10274647;28;20035;-86
2022/12/07 05:00:14;;;;;;;0.10;0.10;;;;;;;1.49;99.10;101142.72;10295401;28;20121;-86
2022/12/07 05:05:16;;;;;;;0.10;0.10;;;;;;;1.49;98.66;101132.38;10290102;28;20556;-86
2022/12/07 05:10:17;;;;;;;0.10;0.10;;;;;;;1.53;98.77;101139.50;10288175;28;20043;-86
2022/12/07 05:15:19;;;;;;;0.15;0.15;;;;;;;1.56;99.16;101137.13;10279893;28;20042;-86
2022/12/07 05:20:20;;;;;;;0.10;0.10;;;;;;;1.50;99.17;101134.16;10288975;28;20310;-86
2022/12/07 05:25:22;;;;;;;0.00;0.00;;;;;;;1.44;98.94;101140.63;10271464;28;20523;-86
2022/12/07 05:30:25;;;;;;;0.20;0.20;;;;;;;1.42;98.74;101133.69;10280065;28;20130;-86
2022/12/07 05:35:26;;;;;;;0.00;0.00;;;;;;;1.42;99.22;101153.44;10286565;28;20046;-86
2022/12/07 05:40:28;;;;;;;0.08;0.08;;;;;;;1.38;98.95;101152.41;10286075;28;20058;-86
2022/12/07 05:45:29;;;;;;;0.10;0.10;;;;;;;1.46;98.84;101147.69;10291845;28;20042;-86
2022/12/07 05:50:31;;;;;;;0.10;0.10;;;;;;;1.51;98.88;101133.34;10277965;28;20047;-86
2022/12/07 05:55:35;;;;;;;0.10;0.10;;;;;;;1.57;99.22;101132.81;10270133;28;20068;-86
2022/12/07 06:00:37;;;;;;;0.15;0.15;;;;;;;1.61;99.08;101137.38;10294283;28;20051;-86
2022/12/07 06:05:38;;;;;;;0.10;0.10;;;;;;;1.57;98.79;101138.88;10287089;28;20039;-86
2022/12/07 06:10:41;;;;;;;0.20;0.20;;;;;;;1.57;99.24;101138.88;10289462;28;20042;-87
2022/12/07 06:15:42;;;;;;;0.00;0.00;;;;;;;1.66;99.15;101137.66;10293829;28;20046;-86
2022/12/07 06:20:44;;;;;;;0.52;0.40;;;;;;;1.67;99.15;101142.03;10290214;28;20120;-86
2022/12/07 06:25:46;;;;;;;2.53;1.17;;;;;;;1.66;99.20;101135.94;10284848;28;20043;-86
2022/12/07 06:30:47;;;;;;;0.10;0.10;;;;;;;1.77;99.16;101136.56;10285646;28;20059;-86
2022/12/07 06:35:49;;;;;;;0.25;0.25;;;;;;;1.82;99.18;101135.16;10291887;28;20035;-86
2022/12/07 06:40:50;;;;;;;0.20;0.20;;;;;;;1.92;99.00;101142.63;10268485;28;20038;-87
2022/12/07 06:45:52;;;;;;;0.00;0.00;;;;;;;1.93;99.01;101148.69;10285730;28;20045;-87
2022/12/07 06:50:53;;;;;;;0.10;0.10;;;;;;;1.99;99.04;101158.50;10280489;28;20038;-87
2022/12/07 06:55:56;;;;;;;0.10;0.10;;;;;;;1.99;99.02;101174.88;10285922;28;20035;-87
2022/12/07 07:01:01;;;;;;;0.70;0.43;;;;;;;2.03;99.25;101178.53;10282643;28;20051;-90
2022/12/07 07:06:03;;;;;;;1.55;1.38;;;;;;;2.02;98.97;101169.88;10283705;28;20420;-86
2022/12/07 07:11:06;;;;;;;0.10;0.10;;;;;;;1.94;99.00;101177.19;10299330;28;20050;-86
2022/12/07 07:16:08;;;;;;;0.10;0.10;;;;;;;1.88;99.09;101169.09;10283503;28;20053;-86
2022/12/07 07:21:09;;;;;;;0.10;0.10;;;;;;;1.78;98.64;101171.91;10283588;28;20436;-86
2022/12/07 07:26:11;;;;;;;0.10;0.10;;;;;;;1.64;98.60;101175.41;10291224;28;20045;-87
2022/12/07 07:31:13;;;;;;;0.10;0.10;;;;;;;1.46;98.40;101173.50;10226055;29;20095;-87
2022/12/07 07:36:14;;;;;;;0.00;0.00;;;;;;;1.35;98.39;101172.84;10226161;29;20047;-88
2022/12/07 07:41:16;;;;;;;0.00;0.00;;;;;;;1.29;98.50;101166.41;10242847;28;20505;-88
2022/12/07 07:46:17;;;;;;;0.10;0.10;;;;;;;1.20;98.26;101169.31;10243183;29;20592;-88
2022/12/07 07:51:19;;;;;;;0.05;0.05;;;;;;;1.18;98.56;101170.94;10245641;28;20486;-85
2022/12/07 07:56:20;;;;;;;0.30;0.20;;;;;;;1.11;98.39;101167.09;10233719;28;20035;-86
2022/12/07 08:01:22;;;;;;;0.10;0.10;;;;;;;1.13;98.24;101169.78;10242301;28;20118;-86
2022/12/07 08:06:24;;;;;;;0.30;0.30;;;;;;;1.31;98.25;101186.34;10250346;28;20039;-86
2022/12/07 08:11:32;;;;;;;0.10;0.10;;;;;;;1.33;98.35;101178.72;10239731;28;20049;-86
2022/12/07 08:16:37;;;;;;;0.25;0.25;;;;;;;1.33;98.36;101181.28;10241899;28;20039;-87
2022/12/07 08:21:45;;;;;;;0.10;0.10;;;;;;;1.25;98.58;101183.41;10229700;28;20056;-87
2022/12/07 08:26:59;;;;;;;0.47;0.47;;;;;;;1.24;98.51;101182.50;10244141;28;20035;-87
2022/12/07 08:32:04;;;;;;;0.32;0.30;;;;;;;1.40;98.71;101168.84;10286084;28;20503;-87
2022/12/07 08:37:17;;;;;;;1.67;0.73;;;;;;;1.55;98.62;101173.16;10264074;28;20122;-87
2022/12/07 08:42:53;;;;;;;0.10;0.10;;;;;;;1.62;98.75;101192.47;10236494;28;20050;-87
2022/12/07 08:48:48;;;;;;;0.13;0.13;;;;;;;1.64;98.61;101196.94;10249669;28;20182;-87
2022/12/07 08:54:06;;;;;;;0.10;0.10;;;;;;;1.70;98.90;101186.09;10271815;28;20047;-87
2022/12/07 08:59:38;;;;;;;0.40;0.40;;;;;;;1.78;98.74;101182.25;10266154;28;20097;-88
2022/12/07 09:04:55;;;;;;;0.10;0.10;;;;;;;1.80;98.61;101183.22;10263260;28;20055;-88
2022/12/07 09:10:16;;;;;;;0.10;0.10;;;;;;;1.85;98.58;101189.56;10270413;28;20129;-88
2022/12/07 09:15:52;;;;;;;0.10;0.10;;;;;;;1.96;98.76;101195.34;10264237;28;20062;-88
2022/12/07 09:20:57;;;;;;;0.43;0.43;;;;;;;2.04;98.81;101188.97;10263154;28;20307;-88
2022/12/07 09:26:04;;;;;;;0.10;0.10;;;;;;;2.10;98.65;77618.06;10244048;28;20873;-88
2022/12/07 09:31:14;;;;;;;0.10;0.10;;;;;;;2.24;98.57;101181.47;10262348;28;20216;-87
2022/12/07 09:36:31;;;;;;;2.00;0.60;;;;;;;2.37;98.60;101178.78;10270341;28;20078;-88
2022/12/07 09:41:42;;;;;;;0.30;0.28;;;;;;;2.57;98.62;101190.22;10252712;28;20046;-87
2022/12/07 09:47:02;;;;;;;0.20;0.10;;;;;;;2.89;98.46;101191.09;10243438;28;20089;-88
2022/12/07 09:52:34;;;;;;;0.10;0.10;;;;;;;3.35;98.51;101182.34;10256514;28;20050;-88
2022/12/07 09:57:44;;;;;;;0.20;0.20;;;;;;;3.58;98.05;101169.69;10291721;28;20571;-87
2022/12/07 10:03:05;;;;;;;0.10;0.10;;;;;;;3.64;97.69;101176.06;10275866;28;20044;-86
2022/12/07 10:08:11;;;;;;;0.00;0.00;;;;;;;3.40;97.31;101175.69;10306835;28;20125;-86
2022/12/07 10:13:36;;;;;;;0.55;0.20;;;;;;;3.63;97.01;101179.44;10286247;28;20567;-86
2022/12/07 10:18:42;;;;;;;0.10;0.10;;;;;;;3.95;96.78;101162.09;10297419;28;20040;-85
2022/12/07 10:24:04;;;;;;;0.10;0.10;;;;;;;4.10;96.54;101150.69;10265684;28;20035;-85
2022/12/07 10:29:20;;;;;;;0.20;0.20;;;;;;;4.21;95.90;101152.09;10265617;28;20066;-85
2022/12/07 10:34:25;;;;;;;0.35;0.30;;;;;;;4.55;95.59;101158.94;10239678;28;20034;-86
2022/12/07 10:39:28;;;;;;;0.20;0.20;;;;;;;4.70;94.99;101159.66;10238747;28;20085;-86
2022/12/07 10:44:33;;;;;;;0.10;0.10;;;;;;;4.68;94.21;101157.78;10260639;28;20128;-85
2022/12/07 10:49:44;;;;;;;0.30;0.30;;;;;;;4.56;93.53;101148.63;10230396;28;20046;-86
2022/12/07 10:55:25;;;;;;;0.10;0.10;;;;;;;4.52;92.92;101145.78;10234804;28;20055;-85
2022/12/07 11:00:42;;;;;;;0.10;0.10;;;;;;;4.42;92.56;101137.56;10253774;28;20062;-85
2022/12/07 11:06:06;;;;;;;0.30;0.30;;;;;;;4.30;92.31;101131.81;10244277;28;20035;-85
2022/12/07 11:11:20;;;;;;;0.57;0.15;;;;;;;4.28;92.03;101128.28;10242916;28;20478;-85
2022/12/07 11:16:52;;;;;;;0.05;0.05;;;;;;;4.43;91.77;101139.38;10216846;29;20091;-85
2022/12/07 11:22:02;;;;;;;0.10;0.10;;;;;;;4.54;91.65;101124.31;10228646;28;20121;-85
2022/12/07 11:27:17;;;;;;;0.10;0.10;;;;;;;4.67;91.41;101118.00;10242652;28;20046;-86
2022/12/07 11:32:36;;;;;;;0.10;0.10;;;;;;;4.60;91.27;101108.16;10279044;28;20050;-87
2022/12/07 11:37:40;;;;;;;0.22;0.22;;;;;;;4.64;91.17;101093.59;10279957;28;20043;-86
2022/12/07 11:42:48;;;;;;;0.20;0.20;;;;;;;4.69;90.83;101098.19;10265555;28;20643;-86
2022/12/07 11:48:01;;;;;;;3.53;0.90;;;;;;;4.59;90.75;101096.91;10275089;28;20050;-86
2022/12/07 11:53:08;;;;;;;3.55;0.90;;;;;;;4.62;90.74;101090.94;10272251;28;20124;-85
2022/12/07 11:58:31;;;;;;;0.75;0.75;;;;;;;4.74;90.64;101085.44;10278913;28;20043;-85
2022/12/07 12:03:38;;;;;;;0.10;0.10;;;;;;;4.62;90.36;101079.69;10265023;28;20030;-85
2022/12/07 12:08:45;;;;;;;0.55;0.15;;;;;;;4.62;90.19;101065.00;10263415;28;20480;-85
2022/12/07 12:14:30;;;;;;;0.52;0.50;;;;;;;4.75;90.16;101061.28;10276747;28;20043;-84
2022/12/07 12:20:03;;;;;;;0.10;0.10;;;;;;;4.74;89.82;101055.22;10229980;28;20444;-86
2022/12/07 12:25:10;;;;;;;0.35;0.28;;;;;;;4.71;89.76;101049.84;10254278;28;20098;-85
2022/12/07 12:30:33;;;;;;;0.57;0.30;;;;;;;4.73;89.52;101043.03;10241066;28;20046;-85
2022/12/07 12:35:36;;;;;;;0.40;0.17;;;;;;;4.74;89.23;101033.53;10220010;28;20039;-85
2022/12/07 12:40:39;;;;;;;0.25;0.22;;;;;;;4.51;88.93;101029.94;10240811;28;20122;-86
2022/12/07 12:45:47;;;;;;;0.90;0.25;;;;;;;4.32;88.84;101035.97;10240827;28;20118;-86
2022/12/07 12:51:09;;;;;;;0.10;0.10;;;;;;;4.16;89.02;101031.75;10208479;28;20047;-85
2022/12/07 12:56:37;;;;;;;0.10;0.10;;;;;;;4.09;88.89;101030.59;10243411;28;20082;-85
2022/12/07 13:01:41;;;;;;;0.10;0.10;;;;;;;4.09;89.06;101024.53;10241289;28;20529;-85
2022/12/07 13:06:43;;;;;;;0.73;0.40;;;;;;;4.12;88.87;101022.97;10222982;29;20686;-85
2022/12/07 13:11:46;;;;;;;0.30;0.30;;;;;;;4.25;89.10;101033.09;10239781;28;20051;-85
2022/12/07 13:16:47;;;;;;;0.10;0.10;;;;;;;4.40;88.98;101038.09;10246837;28;20413;-85
2022/12/07 13:21:49;;;;;;;1.30;1.10;;;;;;;4.45;88.89;101024.47;10269734;28;20133;-85
2022/12/07 13:26:55;;;;;;;0.10;0.10;;;;;;;4.68;88.76;101030.69;10246379;28;20110;-85
2022/12/07 13:31:58;;;;;;;0.35;0.32;;;;;;;4.80;88.76;101025.16;10251164;28;20043;-85
2022/12/07 13:37:15;;;;;;;0.10;0.10;;;;;;;4.72;88.62;101028.28;10246012;29;20436;-85
2022/12/07 13:42:30;;;;;;;0.10;0.10;;;;;;;4.59;88.49;101024.28;10256221;28;20079;-85
2022/12/07 13:47:36;;;;;;;0.10;0.10;;;;;;;4.43;88.20;101017.50;10241651;28;20046;-85
2022/12/07 13:52:43;;;;;;;0.38;0.25;;;;;;;4.28;88.20;101021.97;10230230;28;20043;-85
2022/12/07 13:57:49;;;;;;;0.08;0.08;;;;;;;4.22;88.19;101021.69;10227037;29;20066;-85
2022/12/07 14:03:22;;;;;;;1.08;0.52;;;;;;;4.17;88.37;101020.56;10237884;28;20121;-85
2022/12/07 14:08:24;;;;;;;0.10;0.10;;;;;;;4.13;88.48;101005.69;10263695;28;20067;-86
2022/12/07 14:13:35;;;;;;;4.28;0.57;;;;;;;4.12;88.74;101009.13;10245111;28;20547;-85
2022/12/07 14:18:39;;;;;;;0.10;0.10;;;;;;;4.12;88.75;101027.25;10242174;28;20130;-85
2022/12/07 14:23:41;;;;;;;0.25;0.25;;;;;;;3.92;88.89;101053.13;10249703;28;20054;-86
2022/12/07 14:28:43;;;;;;;0.20;0.20;;;;;;;3.33;88.61;101032.13;10270278;28;20121;-87
2022/12/07 14:33:45;;;;;;;0.20;0.20;;;;;;;2.87;88.67;101028.84;10298800;28;20050;-87
2022/12/07 14:38:47;;;;;;;1.30;0.47;;;;;;;2.55;89.10;101008.28;10298624;28;20465;-88
2022/12/07 14:43:48;;;;;;;0.35;0.35;;;;;;;2.29;89.50;101012.03;10263654;28;20054;-86
2022/12/07 14:49:10;;;;;;;0.63;0.45;;;;;;;2.03;89.70;101011.50;10272467;28;20490;-87
2022/12/07 14:54:32;;;;;;;0.30;0.30;;;;;;;2.03;89.70;101011.50;10283802;28;20118;-86
2022/12/07 14:59:34;;;;;;;0.20;0.20;;;;;;;2.03;90.74;101000.31;10283115;28;20026;-85
2022/12/07 15:04:41;;;;;;;0.20;0.17;;;;;;;2.03;90.98;100987.38;10305952;28;20057;-84
2022/12/07 15:09:42;;;;;;;0.60;0.50;;;;;;;2.06;91.39;100987.56;10273959;28;20065;-85
2022/12/07 15:14:44;;;;;;;1.10;0.47;;;;;;;2.05;91.59;100988.34;10303173;28;20748;-85
2022/12/07 15:19:45;;;;;;;0.00;0.00;;;;;;;2.08;92.23;100993.69;10265022;28;20046;-86
2022/12/07 15:24:47;;;;;;;1.10;1.00;;;;;;;2.09;92.09;100990.31;10308800;28;20058;-85
2022/12/07 15:29:48;;;;;;;1.13;0.70;;;;;;;2.12;92.44;101017.19;10269207;28;20026;-85
2022/12/07 15:34:50;;;;;;;0.20;0.20;;;;;;;2.10;92.78;101010.13;10251587;28;20059;-85
2022/12/07 15:39:51;;;;;;;0.17;0.17;;;;;;;2.02;93.37;100998.50;10277781;28;20046;-85
2022/12/07 15:45:05;;;;;;;0.10;0.10;;;;;;;1.96;93.11;100988.72;10276187;28;20566;-85
2022/12/07 15:50:11;;;;;;;0.10;0.10;;;;;;;1.98;93.44;100986.22;10269835;28;20749;-86
2022/12/07 15:55:13;;;;;;;0.10;0.10;;;;;;;2.09;93.63;100985.13;10264625;28;20054;-86
2022/12/07 16:00:15;;;;;;;0.10;0.10;;;;;;;2.09;93.97;100979.97;10272530;28;20050;-86
2022/12/07 16:05:16;;;;;;;0.20;0.20;;;;;;;2.07;93.96;100974.72;10284487;28;20443;-86
2022/12/07 16:10:18;;;;;;;0.10;0.10;;;;;;;1.99;94.22;100972.53;10286193;28;20038;-86
2022/12/07 16:15:19;;;;;;;0.95;0.25;;;;;;;2.00;94.16;100976.84;10282012;28;20042;-85
2022/12/07 16:20:25;;;;;;;0.95;0.52;;;;;;;1.97;94.26;100974.09;10246030;28;20516;-86
2022/12/07 16:25:26;;;;;;;0.20;0.20;;;;;;;1.89;93.90;100972.03;10277714;28;20152;-86
2022/12/07 16:30:28;;;;;;;0.15;0.13;;;;;;;1.86;94.32;100982.19;10286487;28;20057;-86
2022/12/07 16:35:29;;;;;;;0.75;0.38;;;;;;;1.86;94.32;100977.03;10285364;28;20046;-86
2022/12/07 16:40:31;;;;;;;1.30;0.93;;;;;;;1.89;94.37;100966.84;10255364;28;20043;-85
2022/12/07 16:45:32;;;;;;;0.68;0.65;;;;;;;1.90;94.47;100968.59;10288163;28;20034;-85
2022/12/07 16:50:34;;;;;;;0.20;0.20;;;;;;;1.91;94.34;100975.56;10290324;28;20043;-86
2022/12/07 16:55:40;;;;;;;0.30;0.30;;;;;;;1.96;95.00;100969.78;10255709;28;20448;-86
2022/12/07 17:00:43;;;;;;;0.32;0.30;;;;;;;2.00;95.12;100951.03;10280040;28;20042;-87
2022/12/07 17:05:55;;;;;;;0.40;0.40;;;;;;;2.00;95.23;100953.63;10267919;28;20039;-86
2022/12/07 17:10:56;;;;;;;0.20;0.20;;;;;;;1.99;95.19;100936.34;10276085;28;20393;-87
2022/12/07 17:16:03;;;;;;;0.43;0.43;;;;;;;1.97;95.12;100933.69;10275084;28;20488;-87
2022/12/07 17:21:07;;;;;;;0.38;0.38;;;;;;;1.91;95.57;100931.66;10275191;28;20516;-87
2022/12/07 17:26:13;;;;;;;3.20;2.63;;;;;;;1.79;95.64;100927.50;10217931;28;20787;-86
2022/12/07 17:31:17;;;;;;;5.07;2.85;;;;;;;1.73;95.34;100916.06;10282900;28;20046;-86
2022/12/07 17:36:26;;;;;;;0.90;0.73;;;;;;;1.68;95.66;100919.19;10259672;28;20134;-86
2022/12/07 17:47:01;;;;;;;0.20;0.20;;;;;;;1.67;95.70;100917.44;10242396;28;20039;-86
2022/12/07 17:57:25;;;;;;;0.68;0.45;;;;;;;1.46;95.82;100897.34;10280042;28;20039;-85
2022/12/07 18:02:27;;;;;;;1.98;1.40;;;;;;;1.41;95.50;100893.63;10253360;28;20042;-85
2022/12/07 18:07:28;;;;;;;3.35;0.88;;;;;;;1.37;95.60;100902.88;10290287;28;20042;-86
2022/12/07 18:12:30;;;;;;;3.25;0.70;;;;;;;1.32;95.14;100908.59;10285832;28;20039;-86
2022/12/07 18:17:32;;;;;;;2.45;0.57;;;;;;;1.20;95.49;100896.78;10289960;28;20106;-86
2022/12/07 18:22:35;;;;;;;0.38;0.38;;;;;;;1.22;95.33;100902.03;10296349;28;20050;-85
2022/12/07 18:27:36;;;;;;;0.50;0.43;;;;;;;1.12;95.16;100887.72;10287207;28;20074;-86
2022/12/07 18:32:38;;;;;;;0.28;0.28;;;;;;;1.06;95.34;100884.78;10269437;28;20505;-86
2022/12/07 18:37:40;;;;;;;0.15;0.15;;;;;;;1.01;95.37;100886.22;10276763;28;20109;-85
2022/12/07 18:42:41;;;;;;;0.28;0.28;;;;;;;0.99;95.57;100878.41;10273266;28;20485;-86
2022/12/07 18:47:43;;;;;;;0.20;0.20;;;;;;;1.00;95.32;100858.66;10265217;28;20090;-86
2022/12/07 18:52:44;;;;;;;0.15;0.15;;;;;;;0.99;95.89;100862.03;10263772;28;20047;-86
2022/12/07 18:57:46;;;;;;;0.43;0.40;;;;;;;0.90;95.66;100856.34;10277079;28;20090;-85
2022/12/07 19:02:52;;;;;;;0.10;0.10;;;;;;;0.88;95.54;100849.41;10293220;28;20046;-86
2022/12/07 19:07:54;;;;;;;0.10;0.10;;;;;;;0.85;95.79;100856.97;10273508;28;20436;-85
2022/12/07 19:12:58;;;;;;;0.10;0.10;;;;;;;0.82;95.97;100848.19;10274155;28;20395;-86
2022/12/07 19:22:35;;;;;;;0.73;0.73;;;;;;;0.78;95.92;100835.91;10545794;27;20622;-80
2022/12/07 19:27:37;;;;;;;0.22;0.22;;;;;;;0.76;96.06;100840.97;10527539;28;20135;-82
2022/12/07 19:32:38;;;;;;;1.00;0.75;;;;;;;0.79;96.24;100832.53;10532543;27;20036;-78
2022/12/07 19:37:39;;;;;;;0.55;0.30;;;;;;;0.81;96.22;100831.84;10546936;27;20043;-79
2022/12/07 19:42:41;;;;;;;0.50;0.30;;;;;;;0.84;96.54;100837.16;10558484;27;20047;-79
2022/12/07 19:47:42;;;;;;;0.73;0.73;;;;;;;0.87;96.74;100821.88;10529584;28;20048;-78
2022/12/07 19:52:44;;;;;;;0.77;0.30;;;;;;;0.92;96.85;100818.66;10512778;27;20082;-80
2022/12/07 19:57:46;;;;;;;0.10;0.10;;;;;;;0.90;96.61;100799.63;10512193;28;20040;-79
2022/12/07 20:02:50;;;;;;;0.30;0.30;;;;;;;0.94;96.79;100797.31;10525786;28;20044;-79
2022/12/07 20:07:52;;;;;;;2.13;0.50;;;;;;;0.94;96.96;100793.84;10514756;28;20286;-78
2022/12/07 20:18:13;;;;;;;0.50;0.50;;;;;;;0.97;97.21;100783.69;10542773;27;20050;-80
2022/12/07 20:23:15;;;;;;;0.20;0.20;;;;;;;1.00;97.23;100779.59;10514382;28;20084;-78
2022/12/07 20:28:16;;;;;;;0.68;0.57;;;;;;;1.05;97.32;100777.25;10530573;28;20194;-78
2022/12/07 20:33:19;;;;;;;0.35;0.35;;;;;;;1.08;97.19;100780.00;10511647;28;20478;-78
2022/12/07 20:38:20;;;;;;;0.38;0.38;;;;;;;1.11;97.72;100779.31;10514393;28;20063;-80
2022/12/07 20:43:22;;;;;;;0.10;0.10;;;;;;;1.11;97.49;100763.81;10507416;28;20055;-78
2022/12/07 20:48:23;;;;;;;0.32;0.32;;;;;;;1.11;97.83;100764.75;10515601;28;20043;-78
2022/12/07 20:53:25;;;;;;;0.30;0.30;;;;;;;1.13;97.66;100763.13;10486824;28;20064;-78
2022/12/07 20:58:27;;;;;;;0.22;0.22;;;;;;;1.16;97.67;100758.13;10483969;28;20175;-78
2022/12/07 21:03:29;;;;;;;0.10;0.10;;;;;;;1.17;97.75;100759.91;10424323;28;20037;-77
2022/12/07 21:08:30;;;;;;;0.10;0.10;;;;;;;1.20;97.88;100756.59;10418374;28;20037;-78
2022/12/07 21:13:32;;;;;;;0.10;0.10;;;;;;;1.16;97.64;100747.81;10441756;28;20045;-78
2022/12/07 21:18:34;;;;;;;0.20;0.20;;;;;;;1.16;97.98;100737.50;10439402;28;20033;-77
2022/12/07 21:23:36;;;;;;;0.75;0.52;;;;;;;1.20;97.97;100726.53;10441101;28;20049;-79
2022/12/07 21:28:38;;;;;;;0.10;0.10;;;;;;;1.21;98.24;100733.44;10433894;28;20095;-79
2022/12/07 21:33:40;;;;;;;0.20;0.20;;;;;;;1.21;97.91;100720.56;10433550;28;20047;-80
2022/12/07 21:38:42;;;;;;;0.10;0.10;;;;;;;1.18;98.01;100719.50;10440434;28;20053;-79
2022/12/07 21:43:44;;;;;;;0.20;0.20;;;;;;;1.13;97.96;100711.53;10439491;28;20048;-78
2022/12/07 21:48:58;;;;;;;0.10;0.10;;;;;;;1.12;98.19;100708.88;10439368;28;20094;-78
2022/12/07 21:54:01;;;;;;;0.10;0.10;;;;;;;1.09;98.43;100696.69;10439019;28;20488;-78
2022/12/07 21:59:10;;;;;;;0.20;0.15;;;;;;;1.05;98.06;100687.91;10447101;28;20068;-78
2022/12/07 22:04:22;;;;;;;0.10;0.10;;;;;;;1.01;97.84;100687.66;10439703;28;20049;-79
2022/12/07 22:09:23;;;;;;;1.55;0.50;;;;;;;0.97;98.01;100688.31;10439726;28;20094;-80
2022/12/07 22:19:45;;;;;;;0.32;0.25;;;;;;;0.94;97.96;100682.97;10431330;28;20033;-78
2022/12/07 22:24:47;;;;;;;0.55;0.45;;;;;;;0.92;98.12;100682.91;10438056;28;20044;-79
2022/12/07 22:29:48;;;;;;;0.50;0.50;;;;;;;0.93;98.01;100674.38;10439125;28;20060;-79
2022/12/07 22:34:50;;;;;;;0.10;0.10;;;;;;;0.96;98.33;100676.19;10439669;28;20421;-80
2022/12/07 22:39:51;;;;;;;0.10;0.10;;;;;;;1.01;98.28;100672.19;10440358;28;20087;-80
2022/12/07 22:44:53;;;;;;;0.40;0.40;;;;;;;1.00;98.36;100663.56;10439535;28;20067;-79
2022/12/07 22:49:55;;;;;;;0.10;0.10;;;;;;;0.97;98.45;100659.94;10441174;28;20067;-79
2022/12/07 22:54:57;;;;;;;0.10;0.10;;;;;;;0.98;98.23;100649.72;10438237;28;20127;-79
2022/12/07 22:59:58;;;;;;;0.30;0.30;;;;;;;0.96;98.30;100653.91;10444751;28;20037;-78
2022/12/07 23:05:00;;;;;;;0.30;0.30;;;;;;;0.94;98.04;100636.56;10437170;28;20504;-78
2022/12/07 23:10:04;;;;;;;0.20;0.20;;;;;;;0.80;98.46;100628.97;10439062;28;20037;-78
2022/12/07 23:15:06;;;;;;;0.28;0.28;;;;;;;0.77;98.36;100623.66;10438694;28;20053;-80
2022/12/07 23:20:08;;;;;;;0.40;0.25;;;;;;;0.77;98.68;100622.78;10437258;28;20099;-81
2022/12/07 23:25:09;;;;;;;0.10;0.10;;;;;;;0.72;98.41;100619.06;10436201;28;20496;-80
2022/12/07 23:30:11;;;;;;;0.60;0.60;;;;;;;0.69;98.16;100609.47;10436700;28;20123;-78
2022/12/07 23:35:12;;;;;;;0.35;0.35;;;;;;;0.62;98.58;100589.34;10476942;28;20056;-80
2022/12/07 23:40:14;;;;;;;0.40;0.38;;;;;;;0.62;98.54;100594.50;10477723;28;20128;-79
2022/12/07 23:45:15;;;;;;;0.70;0.55;;;;;;;0.53;98.36;100582.00;10472129;28;20136;-79
2022/12/07 23:50:17;;;;;;;0.43;0.43;;;;;;;0.48;98.63;100578.25;10448595;28;20505;-79
2022/12/07 23:55:20;;;;;;;0.10;0.10;;;;;;;0.46;98.52;100567.88;10455532;28;20040;-80
